createdAt,value
2023-04-16T00:00:57.242Z,96233.69
2023-04-16T00:01:58.938Z,96234.47
2023-04-16T00:03:00.678Z,96234.13
2023-04-16T00:04:02.931Z,96237.56
2023-04-16T00:05:05.319Z,96233.78
2023-04-16T00:06:07.200Z,96239.53
2023-04-16T00:07:08.787Z,96240.41
2023-04-16T00:08:10.304Z,96237.97
2023-04-16T00:09:11.913Z,96239.72
2023-04-16T00:10:14.466Z,96244.41
2023-04-16T00:11:15.988Z,96237.50
2023-04-16T00:12:17.640Z,96234.53
2023-04-16T00:13:19.253Z,96243.88
2023-04-16T00:14:20.860Z,96237.13
2023-04-16T00:15:22.527Z,96235.69
2023-04-16T00:16:24.103Z,96234.22
2023-04-16T00:17:25.764Z,96242.94
2023-04-16T00:18:27.746Z,96235.00
2023-04-16T00:19:29.358Z,96235.84
2023-04-16T00:20:31.005Z,96238.59
2023-04-16T00:21:32.575Z,96240.59
2023-04-16T00:22:34.095Z,96241.38
2023-04-16T00:23:35.800Z,96243.28
2023-04-16T00:24:37.319Z,96245.88
2023-04-16T00:25:38.854Z,96251.09
2023-04-16T00:26:41.031Z,96249.88
2023-04-16T00:27:42.613Z,96243.31
2023-04-16T00:28:44.129Z,96250.16
2023-04-16T00:29:45.790Z,96241.59
2023-04-16T00:30:47.338Z,96247.16
2023-04-16T00:31:48.935Z,96247.09
2023-04-16T00:32:50.515Z,96246.72
2023-04-16T00:33:52.018Z,96238.00
2023-04-16T00:34:53.574Z,96236.16
2023-04-16T00:35:55.100Z,96234.69
2023-04-16T00:36:56.600Z,96239.28
2023-04-16T00:37:58.102Z,96243.59
2023-04-16T00:38:59.657Z,96236.94
2023-04-16T00:40:01.475Z,96241.28
2023-04-16T00:41:03.040Z,96236.19
2023-04-16T00:42:04.561Z,96239.59
2023-04-16T00:43:06.226Z,96248.75
2023-04-16T00:44:07.786Z,96247.19
2023-04-16T00:45:10.377Z,96243.22
2023-04-16T00:46:12.127Z,96244.78
2023-04-16T00:47:13.829Z,96237.19
2023-04-16T00:48:15.584Z,96246.06
2023-04-16T00:49:17.400Z,96240.28
2023-04-16T00:50:19.104Z,96245.63
2023-04-16T00:51:21.673Z,96244.84
2023-04-16T00:52:23.205Z,96250.31
2023-04-16T00:53:25.641Z,96246.50
2023-04-16T00:54:27.221Z,96243.81
2023-04-16T00:55:29.197Z,96243.66
2023-04-16T00:56:30.985Z,96248.44
2023-04-16T00:57:32.542Z,96247.66
2023-04-16T00:58:35.646Z,96246.72
2023-04-16T00:59:37.434Z,96244.13
2023-04-16T01:00:38.965Z,96253.03
2023-04-16T01:01:40.579Z,96256.31
2023-04-16T01:02:42.478Z,96253.38
2023-04-16T01:03:46.436Z,96255.53
2023-04-16T01:04:48.175Z,96250.75
2023-04-16T01:05:50.610Z,96247.16
2023-04-16T01:06:52.272Z,96254.59
2023-04-16T01:07:53.973Z,96248.97
2023-04-16T01:08:55.609Z,96252.50
2023-04-16T01:09:57.562Z,96254.13
2023-04-16T01:10:59.159Z,96246.94
2023-04-16T01:12:02.137Z,96254.72
2023-04-16T01:13:03.671Z,96245.53
2023-04-16T01:14:05.490Z,96242.16
2023-04-16T01:15:07.787Z,96242.94
2023-04-16T01:16:11.287Z,96243.72
2023-04-16T01:17:12.900Z,96241.22
2023-04-16T01:18:18.722Z,96240.00
2023-04-16T01:19:20.383Z,96242.63
2023-04-16T01:20:22.006Z,96247.41
2023-04-16T01:21:23.581Z,96247.34
2023-04-16T01:22:25.096Z,96250.44
2023-04-16T01:23:26.603Z,96247.06
2023-04-16T01:24:28.317Z,96252.97
2023-04-16T01:25:29.864Z,96251.22
2023-04-16T01:26:31.868Z,96250.63
2023-04-16T01:27:33.507Z,96253.72
2023-04-16T01:28:35.347Z,96247.84
2023-04-16T01:29:37.122Z,96247.34
2023-04-16T01:30:38.729Z,96245.88
2023-04-16T01:31:40.455Z,96240.81
2023-04-16T01:32:42.113Z,96245.31
2023-04-16T01:33:43.696Z,96253.88
2023-04-16T01:34:45.502Z,96248.19
2023-04-16T01:35:47.129Z,96247.06
2023-04-16T01:36:48.655Z,96244.13
2023-04-16T01:37:51.065Z,96236.16
2023-04-16T01:38:52.623Z,96245.84
2023-04-16T01:39:54.239Z,96248.25
2023-04-16T01:40:59.603Z,96242.22
2023-04-16T01:42:02.430Z,96247.94
2023-04-16T01:43:04.700Z,96242.91
2023-04-16T01:44:06.437Z,96231.06
2023-04-16T01:45:08.404Z,96246.03
2023-04-16T01:46:18.731Z,96244.13
2023-04-16T01:47:20.411Z,96243.09
2023-04-16T01:48:22.189Z,96244.41
2023-04-16T01:49:23.753Z,96241.00
2023-04-16T01:50:25.321Z,96245.59
2023-04-16T01:51:28.107Z,96236.50
2023-04-16T01:52:30.297Z,96246.56
2023-04-16T01:53:31.929Z,96247.31
2023-04-16T01:54:33.433Z,96236.34
2023-04-16T01:55:35.084Z,96241.34
2023-04-16T01:56:36.620Z,96238.06
2023-04-16T01:57:38.170Z,96240.47
2023-04-16T01:58:41.360Z,96235.97
2023-04-16T01:59:42.908Z,96239.09
2023-04-16T02:00:44.507Z,96238.41
2023-04-16T02:01:46.383Z,96232.34
2023-04-16T02:02:49.454Z,96234.75
2023-04-16T02:03:51.868Z,96243.66
2023-04-16T02:04:53.853Z,96240.28
2023-04-16T02:05:55.686Z,96238.38
2023-04-16T02:06:57.224Z,96237.59
2023-04-16T02:07:58.874Z,96236.47
2023-04-16T02:09:00.495Z,96235.28
2023-04-16T02:10:02.074Z,96232.09
2023-04-16T02:11:03.737Z,96229.41
2023-04-16T02:12:05.994Z,96231.38
2023-04-16T02:13:07.561Z,96231.81
2023-04-16T02:14:09.141Z,96234.91
2023-04-16T02:15:11.233Z,96232.22
2023-04-16T02:16:12.886Z,96232.66
2023-04-16T02:17:15.609Z,96240.00
2023-04-16T02:18:17.477Z,96235.06
2023-04-16T02:19:19.074Z,96238.16
2023-04-16T02:20:20.760Z,96234.38
2023-04-16T02:21:22.345Z,96239.41
2023-04-16T02:22:23.935Z,96238.28
2023-04-16T02:23:25.638Z,96231.00
2023-04-16T02:24:27.496Z,96235.25
2023-04-16T02:25:29.087Z,96231.41
2023-04-16T02:26:30.707Z,96230.28
2023-04-16T02:27:32.329Z,96233.69
2023-04-16T02:28:33.815Z,96237.25
2023-04-16T02:29:35.829Z,96239.25
2023-04-16T02:30:38.696Z,96235.97
2023-04-16T02:31:40.411Z,96234.53
2023-04-16T02:32:42.020Z,96226.91
2023-04-16T02:33:43.727Z,96229.69
2023-04-16T02:34:45.308Z,96230.88
2023-04-16T02:35:48.682Z,96227.00
2023-04-16T02:36:50.253Z,96226.13
2023-04-16T02:37:51.832Z,96224.22
2023-04-16T02:38:53.508Z,96217.06
2023-04-16T02:39:55.251Z,96223.97
2023-04-16T02:40:56.854Z,96224.72
2023-04-16T02:41:59.438Z,96230.25
2023-04-16T02:43:01.220Z,96223.94
2023-04-16T02:44:02.804Z,96230.81
2023-04-16T02:45:04.675Z,96230.59
2023-04-16T02:46:06.724Z,96232.94
2023-04-16T02:47:08.281Z,96229.81
2023-04-16T02:48:10.042Z,96232.63
2023-04-16T02:49:11.695Z,96224.69
2023-04-16T02:50:13.661Z,96228.28
2023-04-16T02:51:15.339Z,96229.63
2023-04-16T02:52:16.868Z,96228.09
2023-04-16T02:53:18.372Z,96233.34
2023-04-16T02:54:19.882Z,96226.16
2023-04-16T02:55:21.572Z,96223.94
2023-04-16T02:56:23.081Z,96229.75
2023-04-16T02:57:24.602Z,96229.66
2023-04-16T02:58:27.020Z,96226.22
2023-04-16T02:59:28.521Z,96226.91
2023-04-16T03:00:30.124Z,96225.66
2023-04-16T03:01:31.767Z,96224.66
2023-04-16T03:02:33.592Z,96231.25
2023-04-16T03:03:35.628Z,96231.56
2023-04-16T03:04:37.298Z,96234.47
2023-04-16T03:05:40.289Z,96227.94
2023-04-16T03:06:42.076Z,96232.72
2023-04-16T03:07:43.718Z,96233.63
2023-04-16T03:08:45.429Z,96229.28
2023-04-16T03:09:47.264Z,96228.41
2023-04-16T03:10:48.895Z,96227.44
2023-04-16T03:11:50.413Z,96226.53
2023-04-16T03:12:51.992Z,96229.44
2023-04-16T03:13:53.862Z,96229.31
2023-04-16T03:14:55.473Z,96228.53
2023-04-16T03:15:57.034Z,96229.88
2023-04-16T03:16:58.779Z,96229.09
2023-04-16T03:18:01.117Z,96224.53
2023-04-16T03:19:02.753Z,96231.44
2023-04-16T03:20:05.123Z,96228.44
2023-04-16T03:21:06.684Z,96232.13
2023-04-16T03:22:08.413Z,96226.31
2023-04-16T03:23:10.008Z,96228.78
2023-04-16T03:24:11.682Z,96229.19
2023-04-16T03:25:13.659Z,96230.53
2023-04-16T03:26:15.345Z,96228.50
2023-04-16T03:27:16.902Z,96233.84
2023-04-16T03:28:18.491Z,96229.59
2023-04-16T03:29:20.459Z,96236.34
2023-04-16T03:30:21.982Z,96236.66
2023-04-16T03:31:26.649Z,96234.19
2023-04-16T03:32:28.308Z,96231.69
2023-04-16T03:33:29.903Z,96243.03
2023-04-16T03:34:31.504Z,96235.19
2023-04-16T03:35:33.404Z,96240.84
2023-04-16T03:36:34.952Z,96240.25
2023-04-16T03:37:36.510Z,96233.94
2023-04-16T03:38:38.033Z,96248.34
2023-04-16T03:39:39.634Z,96235.03
2023-04-16T03:40:41.398Z,96235.44
2023-04-16T03:41:43.028Z,96242.38
2023-04-16T03:42:44.664Z,96243.94
2023-04-16T03:43:46.229Z,96234.06
2023-04-16T03:44:47.776Z,96237.66
2023-04-16T03:45:49.303Z,96237.28
2023-04-16T03:46:51.291Z,96233.47
2023-04-16T03:47:53.018Z,96239.19
2023-04-16T03:48:54.628Z,96236.94
2023-04-16T03:49:56.202Z,96239.38
2023-04-16T03:50:57.746Z,96241.34
2023-04-16T03:51:59.384Z,96237.63
2023-04-16T03:53:00.930Z,96238.84
2023-04-16T03:54:02.499Z,96247.69
2023-04-16T03:55:04.362Z,96240.31
2023-04-16T03:56:06.206Z,96242.97
2023-04-16T03:57:07.808Z,96239.19
2023-04-16T03:58:09.708Z,96246.88
2023-04-16T03:59:11.470Z,96241.53
2023-04-16T04:00:13.314Z,96244.72
2023-04-16T04:01:15.317Z,96244.81
2023-04-16T04:02:17.046Z,96246.09
2023-04-16T04:03:19.060Z,96240.47
2023-04-16T04:04:21.239Z,96241.34
2023-04-16T04:05:22.978Z,96243.75
2023-04-16T04:06:24.561Z,96241.50
2023-04-16T04:07:26.098Z,96236.06
2023-04-16T04:08:27.653Z,96239.53
2023-04-16T04:09:29.217Z,96241.72
2023-04-16T04:10:37.323Z,96255.13
2023-04-16T04:11:38.960Z,96250.16
2023-04-16T04:12:40.584Z,96253.78
2023-04-16T04:13:42.119Z,96254.38
2023-04-16T04:14:43.631Z,96252.63
2023-04-16T04:15:45.255Z,96257.84
2023-04-16T04:16:46.878Z,96258.31
2023-04-16T04:17:48.516Z,96259.53
2023-04-16T04:18:50.236Z,96257.19
2023-04-16T04:20:00.994Z,96255.34
2023-04-16T04:21:07.591Z,96261.97
2023-04-16T04:22:09.188Z,96260.03
2023-04-16T04:23:10.968Z,96260.94
2023-04-16T04:24:12.500Z,96256.25
2023-04-16T04:25:14.346Z,96262.09
2023-04-16T04:26:16.451Z,96260.88
2023-04-16T04:27:18.013Z,96264.78
2023-04-16T04:28:19.586Z,96264.78
2023-04-16T04:29:21.225Z,96257.97
2023-04-16T04:30:22.773Z,96260.97
2023-04-16T04:31:24.450Z,96265.47
2023-04-16T04:32:26.530Z,96269.56
2023-04-16T04:33:28.661Z,96266.25
2023-04-16T04:34:30.217Z,96268.31
2023-04-16T04:35:31.865Z,96271.44
2023-04-16T04:36:33.713Z,96270.75
2023-04-16T04:37:35.304Z,96273.44
2023-04-16T04:38:36.833Z,96268.09
2023-04-16T04:39:38.406Z,96272.47
2023-04-16T04:40:39.939Z,96269.91
2023-04-16T04:41:41.518Z,96279.72
2023-04-16T04:42:43.129Z,96274.38
2023-04-16T04:43:44.654Z,96272.34
2023-04-16T04:44:46.747Z,96270.34
2023-04-16T04:45:49.301Z,96265.66
2023-04-16T04:46:51.078Z,96267.22
2023-04-16T04:47:53.119Z,96270.44
2023-04-16T04:48:54.668Z,96266.06
2023-04-16T04:49:56.225Z,96272.31
2023-04-16T04:50:57.809Z,96275.31
2023-04-16T04:51:59.425Z,96267.50
2023-04-16T04:53:00.994Z,96273.84
2023-04-16T04:54:02.532Z,96270.16
2023-04-16T04:55:04.309Z,96279.88
2023-04-16T04:56:12.326Z,96274.19
2023-04-16T04:57:14.482Z,96271.13
2023-04-16T04:58:16.023Z,96269.19
2023-04-16T04:59:17.582Z,96280.19
2023-04-16T05:00:19.340Z,96282.41
2023-04-16T05:01:21.177Z,96274.63
2023-04-16T05:02:22.804Z,96279.88
2023-04-16T05:03:24.471Z,96281.53
2023-04-16T05:04:26.313Z,96281.03
2023-04-16T05:05:27.986Z,96279.00
2023-04-16T05:06:29.702Z,96276.94
2023-04-16T05:07:31.652Z,96276.38
2023-04-16T05:08:33.354Z,96276.44
2023-04-16T05:09:34.917Z,96273.88
2023-04-16T05:10:36.453Z,96277.09
2023-04-16T05:11:39.266Z,96275.25
2023-04-16T05:12:40.855Z,96274.56
2023-04-16T05:13:42.483Z,96276.97
2023-04-16T05:14:44.038Z,96280.97
2023-04-16T05:15:46.173Z,96283.38
2023-04-16T05:16:47.758Z,96281.81
2023-04-16T05:17:49.331Z,96280.25
2023-04-16T05:18:50.953Z,96274.91
2023-04-16T05:19:52.534Z,96276.97
2023-04-16T05:20:54.131Z,96273.69
2023-04-16T05:21:55.964Z,96278.34
2023-04-16T05:22:57.486Z,96275.84
2023-04-16T05:23:59.082Z,96273.16
2023-04-16T05:25:00.730Z,96283.47
2023-04-16T05:26:02.266Z,96278.53
2023-04-16T05:27:03.885Z,96282.00
2023-04-16T05:28:05.525Z,96278.28
2023-04-16T05:29:07.165Z,96275.25
2023-04-16T05:30:09.829Z,96281.38
2023-04-16T05:31:11.406Z,96279.38
2023-04-16T05:32:12.960Z,96275.50
2023-04-16T05:33:14.535Z,96279.56
2023-04-16T05:34:16.085Z,96274.34
2023-04-16T05:35:17.862Z,96280.22
2023-04-16T05:36:19.496Z,96282.56
2023-04-16T05:37:21.081Z,96282.56
2023-04-16T05:38:22.681Z,96279.09
2023-04-16T05:39:24.246Z,96275.44
2023-04-16T05:40:26.222Z,96271.47
2023-04-16T05:41:27.795Z,96264.59
2023-04-16T05:42:29.536Z,96266.50
2023-04-16T05:43:31.210Z,96267.34
2023-04-16T05:44:34.056Z,96263.53
2023-04-16T05:45:40.882Z,96270.47
2023-04-16T05:46:42.507Z,96279.47
2023-04-16T05:47:44.356Z,96276.78
2023-04-16T05:48:46.149Z,96272.31
2023-04-16T05:49:47.663Z,96275.25
2023-04-16T05:50:49.430Z,96275.94
2023-04-16T05:51:51.190Z,96271.88
2023-04-16T05:52:52.688Z,96270.63
2023-04-16T05:53:54.228Z,96270.75
2023-04-16T05:54:55.939Z,96265.53
2023-04-16T05:55:57.537Z,96265.69
2023-04-16T05:57:01.094Z,96262.47
2023-04-16T05:58:05.929Z,96263.09
2023-04-16T05:59:07.691Z,96256.38
2023-04-16T06:00:09.743Z,96258.97
2023-04-16T06:01:11.546Z,96253.03
2023-04-16T06:02:13.213Z,96249.75
2023-04-16T06:03:14.964Z,96249.13
2023-04-16T06:04:16.774Z,96243.56
2023-04-16T06:05:18.778Z,96240.63
2023-04-16T06:06:20.381Z,96239.97
2023-04-16T06:07:22.509Z,96235.47
2023-04-16T06:08:24.108Z,96236.41
2023-04-16T06:09:25.609Z,96241.31
2023-04-16T06:10:27.453Z,96231.63
2023-04-16T06:11:30.672Z,96233.50
2023-04-16T06:12:32.273Z,96236.06
2023-04-16T06:13:33.807Z,96224.38
2023-04-16T06:14:35.750Z,96228.91
2023-04-16T06:15:37.438Z,96228.13
2023-04-16T06:16:39.018Z,96228.22
2023-04-16T06:17:40.828Z,96231.97
2023-04-16T06:18:42.416Z,96224.88
2023-04-16T06:19:43.994Z,96233.00
2023-04-16T06:20:45.648Z,96223.88
2023-04-16T06:21:47.390Z,96223.41
2023-04-16T06:22:48.972Z,96226.69
2023-04-16T06:23:50.555Z,96221.59
2023-04-16T06:24:53.237Z,96220.03
2023-04-16T06:25:55.267Z,96220.03
2023-04-16T06:26:57.533Z,96220.44
2023-04-16T06:27:59.069Z,96214.59
2023-04-16T06:29:01.077Z,96226.00
2023-04-16T06:30:02.603Z,96219.00
2023-04-16T06:31:04.578Z,96223.41
2023-04-16T06:32:06.273Z,96220.72
2023-04-16T06:33:07.872Z,96228.09
2023-04-16T06:34:09.418Z,96231.28
2023-04-16T06:35:10.991Z,96227.56
2023-04-16T06:36:12.612Z,96226.78
2023-04-16T06:37:14.169Z,96224.00
2023-04-16T06:38:15.716Z,96223.72
2023-04-16T06:39:17.375Z,96229.22
2023-04-16T06:40:18.893Z,96223.13
2023-04-16T06:41:22.748Z,96227.94
2023-04-16T06:42:24.340Z,96226.56
2023-04-16T06:43:26.105Z,96228.25
2023-04-16T06:44:27.653Z,96233.59
2023-04-16T06:45:29.188Z,96225.81
2023-04-16T06:46:30.988Z,96219.00
2023-04-16T06:47:32.622Z,96229.16
2023-04-16T06:48:34.178Z,96220.78
2023-04-16T06:49:35.833Z,96229.41
2023-04-16T06:50:37.728Z,96220.31
2023-04-16T06:51:39.281Z,96219.75
2023-04-16T06:52:40.881Z,96212.28
2023-04-16T06:53:42.657Z,96217.88
2023-04-16T06:54:44.223Z,96213.91
2023-04-16T06:55:45.947Z,96212.63
2023-04-16T06:56:47.546Z,96209.28
2023-04-16T06:57:49.133Z,96207.84
2023-04-16T06:58:51.361Z,96207.19
2023-04-16T06:59:52.909Z,96211.56
2023-04-16T07:00:54.526Z,96204.34
2023-04-16T07:01:56.808Z,96202.88
2023-04-16T07:03:00.328Z,96196.75
2023-04-16T07:04:02.407Z,96203.75
2023-04-16T07:05:04.535Z,96201.56
2023-04-16T07:06:06.251Z,96203.91
2023-04-16T07:07:08.822Z,96207.00
2023-04-16T07:08:10.596Z,96205.09
2023-04-16T07:09:12.445Z,96206.31
2023-04-16T07:10:14.137Z,96212.13
2023-04-16T07:11:15.756Z,96202.22
2023-04-16T07:12:17.493Z,96208.16
2023-04-16T07:13:19.075Z,96203.44
2023-04-16T07:14:20.689Z,96210.41
2023-04-16T07:15:22.274Z,96213.63
2023-04-16T07:16:23.934Z,96204.19
2023-04-16T07:17:25.688Z,96205.38
2023-04-16T07:18:27.428Z,96199.59
2023-04-16T07:19:32.481Z,96206.41
2023-04-16T07:20:34.056Z,96205.09
2023-04-16T07:21:35.786Z,96206.91
2023-04-16T07:22:37.385Z,96202.25
2023-04-16T07:23:38.915Z,96199.13
2023-04-16T07:24:40.495Z,96199.69
2023-04-16T07:25:42.464Z,96195.22
2023-04-16T07:26:44.021Z,96204.66
2023-04-16T07:27:45.588Z,96200.38
2023-04-16T07:28:47.103Z,96196.41
2023-04-16T07:29:50.343Z,96193.97
2023-04-16T07:30:52.015Z,96195.41
2023-04-16T07:31:53.583Z,96189.03
2023-04-16T07:32:56.481Z,96200.41
2023-04-16T07:33:58.676Z,96197.91
2023-04-16T07:35:00.472Z,96201.84
2023-04-16T07:36:02.020Z,96206.91
2023-04-16T07:37:03.600Z,96189.81
2023-04-16T07:38:05.933Z,96192.22
2023-04-16T07:39:07.583Z,96197.75
2023-04-16T07:40:09.625Z,96197.13
2023-04-16T07:41:11.178Z,96200.75
2023-04-16T07:42:12.801Z,96198.16
2023-04-16T07:43:17.413Z,96202.00
2023-04-16T07:44:18.932Z,96197.41
2023-04-16T07:45:20.492Z,96194.69
2023-04-16T07:46:22.107Z,96196.63
2023-04-16T07:47:23.843Z,96189.47
2023-04-16T07:48:25.513Z,96196.63
2023-04-16T07:49:27.087Z,96191.94
2023-04-16T07:50:28.650Z,96184.41
2023-04-16T07:51:30.291Z,96193.09
2023-04-16T07:52:31.830Z,96189.41
2023-04-16T07:53:33.434Z,96187.97
2023-04-16T07:54:34.964Z,96180.41
2023-04-16T07:55:36.546Z,96180.03
2023-04-16T07:56:38.095Z,96181.41
2023-04-16T07:57:41.083Z,96179.63
2023-04-16T07:58:42.623Z,96178.16
2023-04-16T07:59:44.154Z,96177.03
2023-04-16T08:00:45.901Z,96176.59
2023-04-16T08:01:47.460Z,96170.00
2023-04-16T08:02:49.269Z,96171.03
2023-04-16T08:03:51.347Z,96175.59
2023-04-16T08:04:53.120Z,96172.53
2023-04-16T08:05:54.757Z,96170.38
2023-04-16T08:06:56.416Z,96170.81
2023-04-16T08:07:58.015Z,96171.28
2023-04-16T08:08:59.528Z,96170.94
2023-04-16T08:10:01.444Z,96173.66
2023-04-16T08:11:03.177Z,96165.94
2023-04-16T08:12:05.078Z,96163.56
2023-04-16T08:13:06.635Z,96161.22
2023-04-16T08:14:08.408Z,96159.63
2023-04-16T08:15:10.304Z,96165.00
2023-04-16T08:16:12.162Z,96164.59
2023-04-16T08:17:17.389Z,96155.31
2023-04-16T08:18:19.299Z,96159.63
2023-04-16T08:19:20.902Z,96154.97
2023-04-16T08:20:22.651Z,96154.91
2023-04-16T08:21:24.207Z,96152.94
2023-04-16T08:22:26.473Z,96147.91
2023-04-16T08:23:28.127Z,96145.53
2023-04-16T08:24:29.650Z,96145.13
2023-04-16T08:25:31.224Z,96147.00
2023-04-16T08:26:32.757Z,96140.75
2023-04-16T08:27:34.263Z,96148.06
2023-04-16T08:28:35.928Z,96146.94
2023-04-16T08:29:37.720Z,96145.66
2023-04-16T08:30:39.399Z,96148.84
2023-04-16T08:31:41.708Z,96150.81
2023-04-16T08:32:43.781Z,96143.47
2023-04-16T08:33:45.402Z,96147.28
2023-04-16T08:34:46.997Z,96134.78
2023-04-16T08:35:48.554Z,96141.66
2023-04-16T08:36:50.112Z,96136.88
2023-04-16T08:37:51.703Z,96140.66
2023-04-16T08:38:53.284Z,96142.81
2023-04-16T08:39:54.797Z,96136.94
2023-04-16T08:40:58.979Z,96140.00
2023-04-16T08:42:04.725Z,96136.84
2023-04-16T08:43:13.733Z,96137.56
2023-04-16T08:44:21.879Z,96142.97
2023-04-16T08:45:25.997Z,96134.03
2023-04-16T08:46:30.127Z,96136.38
2023-04-16T08:47:34.462Z,96137.25
2023-04-16T08:48:37.384Z,96132.69
2023-04-16T08:49:43.970Z,96141.16
2023-04-16T08:50:46.748Z,96136.63
2023-04-16T08:51:52.204Z,96135.53
2023-04-16T08:52:58.160Z,96139.81
2023-04-16T08:54:08.592Z,96125.06
2023-04-16T08:55:14.439Z,96138.25
2023-04-16T08:56:19.892Z,96135.97
2023-04-16T08:57:23.963Z,96130.25
2023-04-16T08:58:31.840Z,96130.69
2023-04-16T08:59:34.187Z,96134.16
2023-04-16T09:00:38.322Z,96124.56
2023-04-16T09:01:41.950Z,96129.97
2023-04-16T09:02:43.934Z,96133.84
2023-04-16T09:03:48.318Z,96133.81
2023-04-16T09:04:51.539Z,96129.94
2023-04-16T09:05:55.566Z,96126.13
2023-04-16T09:06:58.991Z,96125.28
2023-04-16T09:08:00.643Z,96131.81
2023-04-16T09:09:04.861Z,96133.72
2023-04-16T09:10:08.342Z,96134.44
2023-04-16T09:11:10.132Z,96132.41
2023-04-16T09:12:12.092Z,96130.47
2023-04-16T09:13:16.437Z,96126.56
2023-04-16T09:14:18.383Z,96131.94
2023-04-16T09:15:21.296Z,96124.91
2023-04-16T09:16:24.978Z,96129.91
2023-04-16T09:17:27.287Z,96125.97
2023-04-16T09:18:28.863Z,96121.31
2023-04-16T09:19:30.679Z,96121.28
2023-04-16T09:20:32.206Z,96118.53
2023-04-16T09:21:33.776Z,96111.91
2023-04-16T09:22:36.298Z,96119.28
2023-04-16T09:23:41.082Z,96113.44
2023-04-16T09:24:42.752Z,96113.00
2023-04-16T09:25:44.570Z,96117.59
2023-04-16T09:26:46.598Z,96105.91
2023-04-16T09:27:51.020Z,96109.72
2023-04-16T09:28:52.580Z,96108.84
2023-04-16T09:29:54.177Z,96115.38
2023-04-16T09:31:08.912Z,96107.91
2023-04-16T09:32:11.953Z,96110.97
2023-04-16T09:33:24.729Z,96104.75
2023-04-16T09:34:27.105Z,96107.84
2023-04-16T09:35:45.721Z,96106.84
2023-04-16T09:36:47.366Z,96108.78
2023-04-16T09:37:58.238Z,96101.13
2023-04-16T09:39:00.854Z,96106.09
2023-04-16T09:40:04.403Z,96107.63
2023-04-16T09:41:08.238Z,96096.75
2023-04-16T09:42:10.910Z,96100.63
2023-04-16T09:43:14.504Z,96098.38
2023-04-16T09:44:16.230Z,96093.34
2023-04-16T09:45:17.848Z,96093.75
2023-04-16T09:46:19.455Z,96091.03
2023-04-16T09:47:22.198Z,96092.97
2023-04-16T09:48:33.776Z,96090.63
2023-04-16T09:49:41.097Z,96085.88
2023-04-16T09:50:52.192Z,96089.13
2023-04-16T09:51:56.338Z,96084.53
2023-04-16T09:53:02.635Z,96087.19
2023-04-16T09:54:07.746Z,96085.97
2023-04-16T09:55:09.462Z,96075.09
2023-04-16T09:56:12.370Z,96080.44
2023-04-16T09:57:14.990Z,96085.47
2023-04-16T09:58:20.112Z,96077.84
2023-04-16T09:59:23.672Z,96088.94
2023-04-16T10:00:25.561Z,96081.75
2023-04-16T10:01:27.201Z,96077.59
2023-04-16T10:02:29.748Z,96078.44
2023-04-16T10:03:33.295Z,96070.75
2023-04-16T10:04:48.613Z,96073.81
2023-04-16T10:05:53.785Z,96069.88
2023-04-16T10:07:05.903Z,96065.25
2023-04-16T10:08:14.955Z,96066.31
2023-04-16T10:09:16.573Z,96066.63
2023-04-16T10:10:18.302Z,96062.59
2023-04-16T10:11:21.414Z,96069.41
2023-04-16T10:12:23.035Z,96060.00
2023-04-16T10:13:27.784Z,96061.00
2023-04-16T10:14:29.440Z,96058.94
2023-04-16T10:15:31.149Z,96056.84
2023-04-16T10:16:33.789Z,96057.53
2023-04-16T10:17:36.575Z,96052.06
2023-04-16T10:18:40.646Z,96048.47
2023-04-16T10:19:42.335Z,96049.59
2023-04-16T10:20:44.654Z,96056.44
2023-04-16T10:21:46.452Z,96049.59
2023-04-16T10:22:48.838Z,96038.63
2023-04-16T10:23:52.143Z,96045.91
2023-04-16T10:24:54.793Z,96034.94
2023-04-16T10:25:58.596Z,96037.84
2023-04-16T10:27:00.715Z,96036.84
2023-04-16T10:28:03.366Z,96034.50
2023-04-16T10:29:06.769Z,96031.41
2023-04-16T10:30:09.443Z,96031.41
2023-04-16T10:31:12.594Z,96027.97
2023-04-16T10:32:14.647Z,96023.38
2023-04-16T10:33:16.364Z,96023.31
2023-04-16T10:34:18.579Z,96016.91
2023-04-16T10:35:21.369Z,96011.09
2023-04-16T10:36:25.056Z,96012.06
2023-04-16T10:37:31.397Z,96018.09
2023-04-16T10:38:33.264Z,96015.78
2023-04-16T10:39:39.137Z,96016.69
2023-04-16T10:40:45.079Z,96017.56
2023-04-16T10:41:46.953Z,96022.84
2023-04-16T10:42:59.564Z,96011.75
2023-04-16T10:44:11.107Z,96013.88
2023-04-16T10:45:12.656Z,96014.22
2023-04-16T10:46:21.262Z,96018.31
2023-04-16T10:47:24.943Z,96012.00
2023-04-16T10:48:30.800Z,96005.34
2023-04-16T10:49:37.331Z,96013.53
2023-04-16T10:50:39.764Z,96014.53
2023-04-16T10:51:42.068Z,96014.13
2023-04-16T10:52:43.640Z,96009.28
2023-04-16T10:53:45.272Z,96011.16
2023-04-16T10:54:48.512Z,96016.13
2023-04-16T10:56:15.428Z,96013.00
2023-04-16T10:57:19.682Z,96004.22
2023-04-16T10:58:31.670Z,96003.66
2023-04-16T10:59:35.293Z,96010.47
2023-04-16T11:00:51.186Z,96002.63
2023-04-16T11:01:56.035Z,96007.75
2023-04-16T11:02:57.824Z,95997.56
2023-04-16T11:04:02.059Z,95997.56
2023-04-16T11:05:04.036Z,96000.16
2023-04-16T11:06:17.639Z,95995.19
2023-04-16T11:07:20.936Z,95992.81
2023-04-16T11:08:23.798Z,95996.13
2023-04-16T11:10:05.745Z,95995.50
2023-04-16T11:11:07.726Z,95990.88
2023-04-16T11:12:12.750Z,95984.47
2023-04-16T11:13:15.834Z,95998.28
2023-04-16T11:14:17.602Z,95998.34
2023-04-16T11:15:23.370Z,95989.38
2023-04-16T11:16:26.301Z,95991.19
2023-04-16T11:17:36.585Z,95993.81
2023-04-16T11:18:41.620Z,95991.78
2023-04-16T11:19:53.616Z,95987.91
2023-04-16T11:20:55.589Z,95988.81
2023-04-16T11:21:57.303Z,95977.94
2023-04-16T11:22:59.065Z,95991.09
2023-04-16T11:24:00.627Z,95993.34
2023-04-16T11:25:02.602Z,95987.56
2023-04-16T11:26:04.185Z,95978.63
2023-04-16T11:27:06.033Z,95988.03
2023-04-16T11:28:07.589Z,95982.84
2023-04-16T11:29:15.284Z,95976.22
2023-04-16T11:30:17.354Z,95981.38
2023-04-16T11:31:18.967Z,95988.44
2023-04-16T11:32:22.684Z,95983.78
2023-04-16T11:33:25.357Z,95974.06
2023-04-16T11:34:27.460Z,95974.88
2023-04-16T11:35:29.078Z,95970.53
2023-04-16T11:36:43.632Z,95968.84
2023-04-16T11:37:46.391Z,95969.13
2023-04-16T11:38:47.968Z,95963.63
2023-04-16T11:39:51.333Z,95960.41
2023-04-16T11:40:54.116Z,95958.13
2023-04-16T11:41:56.040Z,95958.00
2023-04-16T11:43:03.227Z,95964.50
2023-04-16T11:44:21.396Z,95959.94
2023-04-16T11:45:23.071Z,95961.44
2023-04-16T11:46:38.193Z,95965.34
2023-04-16T11:47:55.530Z,95959.31
2023-04-16T11:48:57.144Z,95957.78
2023-04-16T11:50:15.018Z,95951.31
2023-04-16T11:51:17.112Z,95947.50
2023-04-16T11:52:33.923Z,95949.78
2023-04-16T11:53:37.119Z,95948.19
2023-04-16T11:54:38.781Z,95947.59
2023-04-16T11:55:45.671Z,95952.81
2023-04-16T11:56:48.729Z,95948.56
2023-04-16T11:57:51.918Z,95948.09
2023-04-16T11:59:10.009Z,95944.78
2023-04-16T12:00:15.866Z,95937.78
2023-04-16T12:01:21.465Z,95934.13
2023-04-16T12:02:50.139Z,95931.66
2023-04-16T12:04:02.509Z,95941.47
2023-04-16T12:05:30.985Z,95944.44
2023-04-16T12:06:32.859Z,95933.19
2023-04-16T12:07:45.714Z,95936.66
2023-04-16T12:08:47.275Z,95934.44
2023-04-16T12:09:49.272Z,95940.03
2023-04-16T12:10:55.218Z,95932.13
2023-04-16T12:11:56.852Z,95932.00
2023-04-16T12:13:15.157Z,95928.00
2023-04-16T12:14:16.726Z,95934.97
2023-04-16T12:15:18.402Z,95926.44
2023-04-16T12:16:21.100Z,95924.03
2023-04-16T12:17:23.540Z,95936.38
2023-04-16T12:18:27.099Z,95929.88